Time;durP1;ratioP1;P1;durP2;ratioP2;P2;SDS_P1;SDS_P2;PMS_P1;PMS_P2;Temp;Humidity;BMP_temperature;BMP_pressure;BME280_temperature;BME280_humidity;BME280_pressure;Samples;Min_cycle;Max_cycle;Signal;HPM_P1;HPM_P2
2022/09/11 00:01:15;;;;;;;1.33;0.70;;;16.30;95.00;;;;;;6183718;23;20005;-79
2022/09/11 00:03:42;;;;;;;2.50;0.70;;;16.30;95.10;;;;;;6183461;23;20017;-79
2022/09/11 00:06:09;;;;;;;;;;;16.30;95.80;;;;;;6183892;23;20001;-79
2022/09/11 00:08:35;;;;;;;;;;;16.30;95.70;;;;;;6157547;23;19901;-79
2022/09/11 00:11:08;;;;;;;4.10;0.80;;;16.00;99.90;;;;;;6183248;23;19900;-80
2022/09/11 00:13:34;;;;;;;0.98;0.90;;;;;;;;;;6182939;23;20005;-79
2022/09/11 00:16:01;;;;;;;0.93;0.80;;;;;;;;;;6182976;23;20021;-79
2022/09/11 00:18:28;;;;;;;1.08;1.00;;;;;;;;;;6183508;23;20007;-80
2022/09/11 00:20:56;;;;;;;1.83;0.90;;;15.90;95.70;;;;;;6183560;23;20005;-79
2022/09/11 00:23:24;;;;;;;1.02;0.98;;;15.70;99.90;;;;;;6183538;23;20017;-79
2022/09/11 00:25:50;;;;;;;0.70;0.70;;;;;;;;;;6183060;23;20436;-79
2022/09/11 00:28:22;;;;;;;2.85;0.80;;;15.70;99.90;;;;;;6183416;23;20471;-79
2022/09/11 00:31:11;;;;;;;1.55;0.68;;;15.90;96.00;;;;;;6183285;23;20013;-79
2022/09/11 00:33:37;;;;;;;0.77;0.77;;;;;;;;;;6183117;23;20016;-79
2022/09/11 00:36:11;;;;;;;0.68;0.68;;;15.90;95.70;;;;;;6182862;23;20850;-79
2022/09/11 00:38:38;;;;;;;1.77;0.98;;;15.90;95.70;;;;;;6183186;23;20092;-76
2022/09/11 00:41:07;;;;;;;2.35;0.73;;;15.90;95.90;;;;;;6183396;23;20013;-77
2022/09/11 00:44:05;;;;;;;1.40;0.73;;;15.80;96.10;;;;;;6183449;23;20017;-76
2022/09/11 00:46:48;;;;;;;0.60;0.60;;;15.60;99.20;;;;;;6183037;23;20011;-76
2022/09/11 00:49:43;;;;;;;1.48;1.02;;;15.60;96.60;;;;;;6183143;23;20012;-77
2022/09/11 00:52:12;;;;;;;0.93;0.77;;;15.50;96.80;;;;;;6182629;23;20535;-79
2022/09/11 00:55:01;;;;;;;1.15;0.90;;;15.30;97.00;;;;;;6183057;23;20015;-79
2022/09/11 00:57:31;;;;;;;1.08;0.88;;;15.30;97.10;;;;;;6182857;23;20005;-79
2022/09/11 01:00:00;;;;;;;4.47;0.93;;;15.50;98.50;;;;;;6182626;23;20072;-79
2022/09/11 01:02:29;;;;;;;4.57;0.80;;;15.20;99.90;;;;;;6183119;23;20033;-79
2022/09/11 01:04:55;;;;;;;1.52;1.05;;;15.10;98.00;;;;;;6156214;23;20047;-79
2022/09/11 01:07:23;;;;;;;2.03;1.05;;;15.10;99.90;;;;;;6182917;23;20009;-79
2022/09/11 01:09:50;;;;;;;;;;;15.00;98.20;;;;;;6182730;23;20036;-79
2022/09/11 01:13:00;;;;;;;0.77;0.77;;;14.80;99.90;;;;;;6183238;23;19979;-79
2022/09/11 01:15:46;;;;;;;3.67;0.90;;;14.60;98.40;;;;;;6162341;23;20459;-79
2022/09/11 01:18:21;;;;;;;1.00;0.90;;;14.50;99.90;;;;;;6182814;23;20403;-79
2022/09/11 01:21:17;;;;;;;0.80;0.80;;;14.60;98.40;;;;;;6182743;23;20005;-80
2022/09/11 01:24:08;;;;;;;2.95;0.90;;;14.50;98.60;;;;;;6182777;23;20120;-79
2022/09/11 01:27:01;;;;;;;3.58;1.23;;;14.50;99.70;;;;;;6182473;23;20005;-79
2022/09/11 01:29:33;;;;;;;3.25;0.73;;;14.70;99.90;;;;;;6182783;23;20005;-79
2022/09/11 01:32:21;;;;;;;4.32;1.20;;;14.50;98.20;;;;;;6182798;23;20455;-79
2022/09/11 01:34:56;;;;;;;1.40;0.98;;;14.40;98.30;;;;;;6182518;23;20001;-79
2022/09/11 01:37:30;;;;;;;4.15;0.80;;;14.40;98.00;;;;;;6182679;23;20008;-79
2022/09/11 01:40:03;;;;;;;1.02;1.02;;;14.40;97.90;;;;;;6182251;23;20076;-79
2022/09/11 01:42:32;;;;;;;1.88;0.90;;;14.40;97.90;;;;;;6182787;23;20009;-79
2022/09/11 01:44:59;;;;;;;0.80;0.75;;;14.40;97.70;;;;;;6155506;23;20471;-79
2022/09/11 01:47:27;;;;;;;0.70;0.70;;;14.40;97.60;;;;;;6182805;23;20064;-79
2022/09/11 01:50:00;;;;;;;0.90;0.90;;;14.30;97.70;;;;;;6182685;23;20008;-79
2022/09/11 01:52:29;;;;;;;0.75;0.75;;;14.20;97.90;;;;;;6182545;23;20036;-79
2022/09/11 01:55:18;;;;;;;1.10;1.05;;;14.10;98.10;;;;;;6182419;23;20463;-79
2022/09/11 01:57:55;;;;;;;0.90;0.90;;;13.90;99.90;;;;;;6181920;23;20508;-79
2022/09/11 02:00:21;;;;;;;1.25;0.90;;;;;;;;;;6182921;23;20005;-79
2022/09/11 02:03:07;;;;;;;1.10;1.02;;;14.00;99.90;;;;;;6181507;23;20116;-79
2022/09/11 02:05:42;;;;;;;1.65;0.93;;;14.00;98.40;;;;;;6182429;23;20511;-79
2022/09/11 02:08:15;;;;;;;0.90;0.90;;;13.90;98.40;;;;;;6182683;23;20001;-79
2022/09/11 02:10:53;;;;;;;0.77;0.77;;;13.90;98.60;;;;;;6182516;23;20083;-79
2022/09/11 02:13:33;;;;;;;1.55;0.80;;;13.90;99.90;;;;;;6182474;23;19997;-79
2022/09/11 02:16:37;;;;;;;1.85;0.98;;;13.60;98.70;;;;;;6181556;23;20020;-80
2022/09/11 02:19:06;;;;;;;0.95;0.80;;;13.70;98.80;;;;;;6178043;23;20005;-79
2022/09/11 02:21:33;;;;;;;4.78;1.00;;;13.80;99.90;;;;;;6181180;23;20483;-79
2022/09/11 02:24:00;;;;;;;0.88;0.88;;;13.40;98.90;;;;;;6182057;23;20024;-79
2022/09/11 02:26:27;;;;;;;;;;;13.60;99.20;;;;;;6182947;23;20043;-79
2022/09/11 02:28:54;;;;;;;0.70;0.70;;;;;;;;;;6181997;23;19904;-79
2022/09/11 02:31:21;;;;;;;0.70;0.70;;;13.60;98.80;;;;;;6181873;23;20001;-80
2022/09/11 02:33:47;;;;;;;0.80;0.80;;;;;;;;;;6182287;23;20070;-79
2022/09/11 02:37:02;;;;;;;1.02;0.85;;;13.70;99.90;;;;;;6182056;23;20005;-79
2022/09/11 02:39:49;;;;;;;0.80;0.80;;;13.50;99.80;;;;;;6182213;23;20001;-79
2022/09/11 02:42:15;;;;;;;3.13;0.73;;;;;;;;;;6181802;23;20431;-79
2022/09/11 02:45:04;;;;;;;1.60;0.73;;;13.30;99.20;;;;;;6181776;23;20031;-79
2022/09/11 02:47:31;;;;;;;0.80;0.70;;;;;;;;;;6182102;23;20409;-79
2022/09/11 02:50:21;;;;;;;2.40;0.90;;;13.70;99.90;;;;;;6181777;23;20344;-79
2022/09/11 02:53:09;;;;;;;2.05;0.88;;;13.20;99.90;;;;;;6181754;23;20455;-78
2022/09/11 02:55:55;;;;;;;0.90;0.70;;;13.60;99.90;;;;;;6182219;23;20088;-79
2022/09/11 02:58:28;;;;;;;0.60;0.60;;;13.10;99.20;;;;;;6182092;23;20005;-79
2022/09/11 03:00:57;;;;;;;0.70;0.70;;;13.20;99.40;;;;;;6181690;23;20028;-79
2022/09/11 03:03:23;;;;;;;0.70;0.70;;;;;;;;;;6179892;23;20353;-79
2022/09/11 03:05:50;;;;;;;2.88;1.25;;;;;;;;;;6181771;23;20012;-79
2022/09/11 03:08:16;;;;;;;0.70;0.70;;;;;;;;;;6181804;23;20878;-79
2022/09/11 03:10:45;;;;;;;4.57;1.17;;;;;;;;;;6182131;23;20001;-79
2022/09/11 03:13:11;;;;;;;1.30;0.90;;;;;;;;;;6181705;23;20032;-80
2022/09/11 03:15:37;;;;;;;0.70;0.70;;;;;;;;;;6180748;23;20087;-80
2022/09/11 03:18:04;;;;;;;0.85;0.85;;;;;;;;;;6181517;23;20029;-79
2022/09/11 03:20:30;;;;;;;1.15;0.90;;;;;;;;;;6181212;23;20428;-79
2022/09/11 03:22:56;;;;;;;0.95;0.80;;;;;;;;;;6181898;23;20043;-79
2022/09/11 03:25:27;;;;;;;0.75;0.75;;;;;;;;;;6181876;23;20008;-79
2022/09/11 03:27:53;;;;;;;6.35;1.00;;;;;;;;;;6182001;23;20035;-79
2022/09/11 03:30:20;;;;;;;4.35;0.68;;;13.10;99.90;;;;;;6155070;23;20009;-79
2022/09/11 03:32:46;;;;;;;1.38;1.10;;;;;;;;;;6181120;23;20001;-79
2022/09/11 03:35:13;;;;;;;1.63;0.82;;;;;;;;;;6181002;23;20009;-80
2022/09/11 03:37:39;;;;;;;0.90;0.70;;;;;;;;;;6181655;23;20536;-79
2022/09/11 03:40:05;;;;;;;1.85;1.08;;;12.80;99.90;;;;;;6181086;23;20016;-79
2022/09/11 03:42:32;;;;;;;3.60;1.08;;;;;;;;;;6181604;23;20444;-79
2022/09/11 03:44:58;;;;;;;1.58;1.00;;;12.60;99.90;;;;;;6181090;23;20028;-79
2022/09/11 03:47:24;;;;;;;4.22;1.42;;;;;;;;;;6181468;23;20065;-79
2022/09/11 03:49:50;;;;;;;0.90;0.90;;;;;;;;;;6181223;23;20009;-79
2022/09/11 03:52:16;;;;;;;2.38;1.05;;;;;;;;;;6181342;23;20506;-79
2022/09/11 03:54:42;;;;;;;0.88;0.88;;;;;;;;;;6181723;23;20036;-79
2022/09/11 03:57:08;;;;;;;0.77;0.77;;;;;;;;;;6181690;23;20002;-79
2022/09/11 03:59:34;;;;;;;4.38;1.13;;;;;;;;;;6181373;23;20454;-79
2022/09/11 04:02:00;;;;;;;1.13;1.02;;;;;;;;;;6181849;23;20058;-79
2022/09/11 04:04:26;;;;;;;0.85;0.77;;;;;;;;;;6181304;23;20157;-79
2022/09/11 04:06:52;;;;;;;2.08;1.10;;;;;;;;;;6181190;23;20008;-79
2022/09/11 04:09:18;;;;;;;1.15;0.88;;;;;;;;;;6181654;23;20013;-79
2022/09/11 04:11:44;;;;;;;0.60;0.60;;;;;;;;;;6181504;23;20064;-79
2022/09/11 04:14:11;;;;;;;0.80;0.80;;;;;;;;;;6181281;23;20021;-79
2022/09/11 04:16:37;;;;;;;0.90;0.90;;;;;;;;;;6181225;23;20096;-79
2022/09/11 04:19:03;;;;;;;1.15;0.93;;;;;;;;;;6181140;23;20432;-79
2022/09/11 04:21:31;;;;;;;0.88;0.88;;;12.50;99.90;;;;;;6181414;23;20006;-79
2022/09/11 04:23:59;;;;;;;1.13;0.98;;;;;;;;;;6179061;23;20020;-79
2022/09/11 04:26:27;;;;;;;5.57;1.85;;;12.30;99.90;;;;;;6181805;23;20008;-79
2022/09/11 04:28:53;;;;;;;0.70;0.70;;;;;;;;;;6181131;23;20009;-79
2022/09/11 04:31:19;;;;;;;0.82;0.82;;;12.30;99.90;;;;;;6181232;23;20109;-79
2022/09/11 04:33:46;;;;;;;1.58;1.13;;;12.80;99.90;;;;;;6179668;23;20005;-79
2022/09/11 04:36:17;;;;;;;1.02;1.02;;;12.40;99.90;;;;;;6181466;23;20051;-79
2022/09/11 04:38:44;;;;;;;1.73;1.00;;;;;;;;;;6181196;23;20429;-79
2022/09/11 04:41:10;;;;;;;0.88;0.85;;;;;;;;;;6179706;23;20001;-79
2022/09/11 04:43:38;;;;;;;4.22;1.05;;;12.00;99.90;;;;;;6181090;23;20016;-78
2022/09/11 04:46:15;;;;;;;1.23;0.88;;;12.00;99.90;;;;;;6182444;23;20009;-79
2022/09/11 04:48:50;;;;;;;1.15;1.00;;;12.00;99.90;;;;;;6182998;23;20005;-79
2022/09/11 04:51:29;;;;;;;0.85;0.80;;;12.00;99.90;;;;;;6183520;23;20011;-79
2022/09/11 04:53:56;;;;;;;2.83;0.90;;;;;;;;;;6183477;23;20008;-78
2022/09/11 04:56:23;;;;;;;1.33;0.73;;;11.80;99.90;;;;;;6183323;23;20371;-78
2022/09/11 04:58:56;;;;;;;;;;;12.00;99.90;;;;;;6183709;23;20001;-79
2022/09/11 05:01:22;;;;;;;1.27;1.27;;;11.90;99.90;;;;;;6182044;23;20302;-79
2022/09/11 05:03:48;;;;;;;0.93;0.80;;;;;;;;;;6183426;23;20068;-79
2022/09/11 05:06:15;;;;;;;0.80;0.80;;;12.50;99.90;;;;;;6182887;23;20009;-79
2022/09/11 05:08:43;;;;;;;9.60;0.90;;;12.10;99.90;;;;;;6183494;23;20009;-79
2022/09/11 05:11:14;;;;;;;3.38;1.13;;;11.80;99.90;;;;;;6183401;23;20012;-79
2022/09/11 05:13:40;;;;;;;0.93;0.93;;;12.00;99.90;;;;;;6183190;23;20012;-78
2022/09/11 05:16:08;;;;;;;0.90;0.90;;;12.00;99.90;;;;;;6181767;23;20016;-79
2022/09/11 05:18:35;;;;;;;1.63;0.90;;;;;;;;;;6183043;23;20005;-79
2022/09/11 05:21:06;;;;;;;0.80;0.80;;;12.00;99.90;;;;;;6182672;23;20071;-79
2022/09/11 05:23:33;;;;;;;0.80;0.80;;;;;;;;;;6182354;23;20083;-78
2022/09/11 05:26:00;;;;;;;2.55;1.00;;;12.20;99.90;;;;;;6182643;23;20028;-80
2022/09/11 05:28:26;;;;;;;5.68;1.30;;;;;;;;;;6183216;23;20033;-79
2022/09/11 05:30:55;;;;;;;7.28;0.90;;;12.30;99.90;;;;;;6182636;23;20027;-79
2022/09/11 05:33:25;;;;;;;1.40;0.90;;;12.30;99.90;;;;;;6182939;23;20028;-79
2022/09/11 05:35:54;;;;;;;2.05;1.00;;;12.20;99.90;;;;;;6182836;23;20020;-79
2022/09/11 05:38:21;;;;;;;4.03;1.10;;;12.30;99.90;;;;;;6182564;23;20338;-79
2022/09/11 05:40:51;;;;;;;2.93;1.00;;;12.30;99.90;;;;;;6182815;23;20007;-79
2022/09/11 05:43:18;;;;;;;1.15;1.05;;;;;;;;;;6182312;23;20437;-79
2022/09/11 05:45:44;;;;;;;;;;;12.40;99.90;;;;;;6183021;23;20005;-79
2022/09/11 05:48:11;;;;;;;1.45;1.27;;;;;;;;;;6182764;23;19901;-78
2022/09/11 05:50:37;;;;;;;1.00;0.90;;;;;;;;;;6182611;23;20004;-79
2022/09/11 05:53:04;;;;;;;1.90;1.00;;;12.40;99.90;;;;;;6182588;23;20016;-79
2022/09/11 05:55:34;;;;;;;1.73;1.50;;;12.80;99.90;;;;;;6181822;23;20003;-79
2022/09/11 05:58:00;;;;;;;1.83;1.27;;;;;;;;;;6182672;23;20472;-79
2022/09/11 06:00:27;;;;;;;1.10;1.00;;;;;;;;;;6182513;23;20005;-79
2022/09/11 06:02:53;;;;;;;1.40;1.30;;;;;;;;;;6182456;23;20083;-79
2022/09/11 06:05:19;;;;;;;1.40;1.30;;;16.90;96.50;;;;;;6182779;23;20015;-79
2022/09/11 06:07:45;;;;;;;3.42;1.00;;;19.80;97.90;;;;;;6182419;23;20511;-79
2022/09/11 06:10:11;;;;;;;1.30;1.20;;;22.30;87.30;;;;;;6181738;23;20028;-79
2022/09/11 06:12:37;;;;;;;1.35;1.20;;;;;;;;;;6182348;23;19997;-79
2022/09/11 06:15:03;;;;;;;5.68;1.17;;;24.10;75.80;;;;;;6181512;23;20424;-79
2022/09/11 06:17:28;;;;;;;1.23;1.17;;;26.00;67.70;;;;;;6182191;23;20027;-80
2022/09/11 06:19:54;;;;;;;1.02;0.93;;;;;;;;;;6182375;23;20000;-80
2022/09/11 06:22:21;;;;;;;0.80;0.80;;;;;;;;;;6182317;23;20063;-80
2022/09/11 06:24:47;;;;;;;2.17;0.63;;;26.00;64.50;;;;;;6182076;23;20029;-80
2022/09/11 06:27:14;;;;;;;2.97;0.88;;;;;;;;;;6182270;23;20352;-80
2022/09/11 06:29:40;;;;;;;0.67;0.60;;;31.80;59.90;;;;;;6181637;23;20031;-79
2022/09/11 06:32:05;;;;;;;0.63;0.60;;;34.70;47.80;;;;;;6155838;23;20437;-80
2022/09/11 06:34:31;;;;;;;0.70;0.70;;;36.60;50.20;;;;;;6182933;23;20409;-80
2022/09/11 06:36:57;;;;;;;0.53;0.50;;;37.80;48.00;;;;;;6181870;23;20021;-79
2022/09/11 06:39:23;;;;;;;0.87;0.53;;;;;;;;;;6181691;23;19997;-81
2022/09/11 06:41:49;;;;;;;2.13;1.17;;;40.50;44.20;;;;;;6182363;23;20005;-81
2022/09/11 06:44:14;;;;;;;0.87;0.50;;;41.70;42.30;;;;;;6181393;23;20412;-81
2022/09/11 06:46:40;;;;;;;3.37;0.40;;;43.10;40.90;;;;;;6181990;23;20231;-81
2022/09/11 06:49:06;;;;;;;0.52;0.38;;;;;;;;;;6181799;23;20243;-81
2022/09/11 06:51:34;;;;;;;0.63;0.40;;;;;;;;;;6182043;23;20009;-81
2022/09/11 06:54:01;;;;;;;0.63;0.30;;;44.90;37.20;;;;;;6182109;23;20005;-80
2022/09/11 06:56:28;;;;;;;0.55;0.30;;;46.20;35.70;;;;;;6181256;23;20005;-78
2022/09/11 06:58:54;;;;;;;0.82;0.40;;;;;;;;;;6181478;23;20009;-78
2022/09/11 07:01:20;;;;;;;;;;;46.80;30.00;;;;;;6181179;23;20001;-77
2022/09/11 07:03:48;;;;;;;1.35;0.60;;;48.10;34.60;;;;;;6181266;23;20240;-77
2022/09/11 07:06:15;;;;;;;0.38;0.30;;;48.50;33.70;;;;;;6180171;23;20084;-79
2022/09/11 07:08:41;;;;;;;1.65;0.50;;;48.70;32.20;;;;;;6181161;23;20013;-78
2022/09/11 07:11:08;;;;;;;1.55;0.30;;;49.80;27.70;;;;;;6180551;23;20036;-78
2022/09/11 07:13:33;;;;;;;1.75;0.75;;;50.20;30.90;;;;;;6180446;23;20005;-78
2022/09/11 07:16:04;;;;;;;4.72;0.52;;;51.10;27.90;;;;;;6180032;23;20059;-78
2022/09/11 07:18:35;;;;;;;1.73;0.50;;;51.10;29.90;;;;;;6180664;23;20532;-78
2022/09/11 07:21:07;;;;;;;5.93;1.17;;;50.40;29.50;;;;;;6181133;23;20012;-78
2022/09/11 07:23:35;;;;;;;0.57;0.40;;;50.70;26.30;;;;;;6181107;23;20339;-78
2022/09/11 07:26:06;;;;;;;3.58;0.70;;;52.60;29.50;;;;;;6181407;23;20052;-78
2022/09/11 07:28:32;;;;;;;1.10;0.52;;;51.60;28.40;;;;;;6182120;23;20009;-78
2022/09/11 07:31:05;;;;;;;0.73;0.68;;;52.30;28.90;;;;;;6181905;23;20032;-79
2022/09/11 07:33:31;;;;;;;3.97;0.88;;;52.70;26.30;;;;;;6181471;23;20444;-79
2022/09/11 07:35:56;;;;;;;3.60;1.05;;;53.20;28.50;;;;;;6181528;23;19997;-79
2022/09/11 07:38:22;;;;;;;2.42;1.10;;;53.40;28.10;;;;;;6180924;23;20009;-79
2022/09/11 07:40:48;;;;;;;0.55;0.40;;;54.10;28.20;;;;;;6154501;23;20440;-79
2022/09/11 07:43:14;;;;;;;4.13;1.00;;;;;;;;;;6181836;23;20020;-79
2022/09/11 07:45:40;;;;;;;1.20;1.05;;;53.70;27.60;;;;;;6180934;23;20007;-78
2022/09/11 07:48:06;;;;;;;1.50;0.90;;;53.40;25.60;;;;;;6154567;23;20032;-79
2022/09/11 07:50:32;;;;;;;0.98;0.80;;;53.80;27.50;;;;;;6158074;23;20028;-89
2022/09/11 07:52:58;;;;;;;1.27;1.10;;;54.50;23.90;;;;;;6150706;23;20001;-79
2022/09/11 07:55:24;;;;;;;1.05;0.70;;;;;;;;;;6173250;23;20059;-78
2022/09/11 07:57:50;;;;;;;0.85;0.60;;;54.30;27.20;;;;;;6177110;23;20001;-78
2022/09/11 08:00:17;;;;;;;1.23;0.88;;;54.80;27.00;;;;;;6177360;23;20005;-78
2022/09/11 08:02:43;;;;;;;1.38;0.90;;;;;;;;;;6177287;23;20021;-78
2022/09/11 08:05:09;;;;;;;1.05;1.00;;;54.30;23.00;;;;;;6176089;23;20063;-78
2022/09/11 08:07:35;;;;;;;0.98;0.98;;;55.90;26.30;;;;;;6175690;23;20725;-76
2022/09/11 08:10:01;;;;;;;2.13;1.20;;;56.70;24.10;;;;;;6175954;23;20005;-76
2022/09/11 08:12:26;;;;;;;1.60;1.10;;;;;;;;;;6176583;23;20001;-76
2022/09/11 08:14:52;;;;;;;1.33;1.23;;;;;;;;;;6175750;23;20083;-77
2022/09/11 08:17:18;;;;;;;3.35;1.20;;;59.70;25.80;;;;;;6176032;23;20092;-77
2022/09/11 08:19:44;;;;;;;1.45;1.40;;;59.50;23.50;;;;;;6176888;23;20017;-77
2022/09/11 08:22:10;;;;;;;1.70;1.60;;;60.20;25.80;;;;;;6179024;23;20436;-76
2022/09/11 08:24:35;;;;;;;1.40;1.40;;;59.20;25.70;;;;;;6177358;23;20363;-76
2022/09/11 08:27:04;;;;;;;1.67;1.58;;;;;;;;;;6178728;23;20059;-76
2022/09/11 08:29:30;;;;;;;2.15;1.67;;;;;;;;;;6178622;23;20452;-77
2022/09/11 08:31:56;;;;;;;1.80;1.70;;;;;;;;;;6178521;23;20005;-79
2022/09/11 08:34:22;;;;;;;1.80;1.70;;;58.90;25.70;;;;;;6179436;23;20436;-77
2022/09/11 08:36:50;;;;;;;1.70;1.60;;;;;;;;;;6179474;23;20013;-79
2022/09/11 08:39:16;;;;;;;2.22;1.77;;;;;;;;;;6151025;23;20016;-78
2022/09/11 08:41:47;;;;;;;1.90;1.80;;;59.70;21.80;;;;;;6178353;23;20023;-78
2022/09/11 08:44:20;;;;;;;1.90;1.80;;;59.30;21.80;;;;;;6178243;23;20016;-79
2022/09/11 08:46:58;;;;;;;1.80;1.60;;;58.70;22.90;;;;;;6178516;23;20005;-81
2022/09/11 08:49:30;;;;;;;1.90;1.52;;;58.90;21.60;;;;;;6180141;23;20009;-81
2022/09/11 08:52:00;;;;;;;1.70;1.60;;;58.90;21.50;;;;;;6181001;23;20076;-81
2022/09/11 08:54:27;;;;;;;1.50;1.50;;;58.60;25.30;;;;;;6182271;23;20017;-81
2022/09/11 08:57:06;;;;;;;3.00;1.60;;;57.30;21.40;;;;;;6181518;23;20084;-77
2022/09/11 08:59:55;;;;;;;1.27;1.17;;;56.70;21.40;;;;;;6180887;23;20008;-78
2022/09/11 09:02:37;;;;;;;1.67;1.50;;;56.00;23.50;;;;;;6180462;23;20001;-77
2022/09/11 09:05:34;;;;;;;1.25;1.15;;;57.10;23.80;;;;;;6181237;23;20472;-79
2022/09/11 09:08:38;;;;;;;1.33;1.23;;;56.30;25.30;;;;;;6179753;23;20475;-79
2022/09/11 09:11:30;;;;;;;0.90;0.90;;;57.40;25.30;;;;;;6089099;23;20313;-79
2022/09/11 09:14:06;;;;;;;0.90;0.90;;;56.90;25.00;;;;;;6082107;23;20378;-76
2022/09/11 09:16:48;;;;;;;0.93;0.93;;;55.20;20.40;;;;;;6088542;23;20019;-76
2022/09/11 09:19:32;;;;;;;1.25;1.00;;;56.80;23.10;;;;;;6089675;23;20030;-76
2022/09/11 09:21:58;;;;;;;3.80;1.10;;;;;;;;;;6089277;23;20007;-78
2022/09/11 09:24:31;;;;;;;0.80;0.80;;;54.40;21.30;;;;;;6089115;23;20537;-77
2022/09/11 09:26:57;;;;;;;2.05;0.75;;;;;;;;;;6088424;23;20614;-77
2022/09/11 09:29:29;;;;;;;1.00;0.80;;;54.30;21.70;;;;;;6088713;23;20122;-80
2022/09/11 09:32:05;;;;;;;0.95;0.70;;;54.10;22.90;;;;;;6088115;23;20063;-81
2022/09/11 09:34:36;;;;;;;1.35;0.55;;;53.80;21.60;;;;;;6089101;23;20058;-82
2022/09/11 09:37:14;;;;;;;2.05;0.70;;;52.50;25.30;;;;;;6088894;23;20013;-81
2022/09/11 09:39:40;;;;;;;0.50;0.50;;;;;;;;;;6088589;23;20367;-82
2022/09/11 09:42:19;;;;;;;1.85;0.63;;;53.30;21.60;;;;;;6089050;23;20017;-79
2022/09/11 09:45:20;;;;;;;0.50;0.50;;;52.80;21.60;;;;;;6120911;23;20029;-79
2022/09/11 09:47:47;;;;;;;1.00;0.52;;;53.50;21.60;;;;;;6179476;23;20001;-78
2022/09/11 09:50:19;;;;;;;2.28;0.60;;;52.50;25.00;;;;;;6180901;23;20135;-78
2022/09/11 09:52:45;;;;;;;0.95;0.45;;;;;;;;;;6179136;23;20522;-79
2022/09/11 09:55:15;;;;;;;1.13;0.60;;;52.80;21.60;;;;;;6180405;23;20001;-79
2022/09/11 09:57:42;;;;;;;0.90;0.68;;;53.10;24.90;;;;;;6180604;23;20015;-79
2022/09/11 10:00:11;;;;;;;0.40;0.40;;;53.30;21.70;;;;;;6180386;23;20009;-78
2022/09/11 10:02:52;;;;;;;0.73;0.60;;;53.40;23.30;;;;;;6180104;23;20352;-79
2022/09/11 10:05:25;;;;;;;1.30;0.60;;;53.00;25.00;;;;;;6179847;23;20005;-79
2022/09/11 10:08:03;;;;;;;0.47;0.45;;;52.60;21.60;;;;;;6180359;23;20010;-79
2022/09/11 10:10:29;;;;;;;1.27;0.50;;;;;;;;;;6180517;23;20065;-79
2022/09/11 10:13:15;;;;;;;0.30;0.30;;;53.10;22.30;;;;;;6180563;23;20013;-79
2022/09/11 10:15:42;;;;;;;0.30;0.30;;;;;;;;;;6178505;23;20048;-78
2022/09/11 10:18:29;;;;;;;1.52;0.40;;;52.00;22.80;;;;;;6180027;23;20084;-79
2022/09/11 10:21:13;;;;;;;2.22;0.50;;;51.70;25.40;;;;;;6178804;23;20440;-79
2022/09/11 10:23:58;;;;;;;0.60;0.38;;;51.30;21.40;;;;;;6175216;23;20021;-79
2022/09/11 10:26:37;;;;;;;0.57;0.30;;;51.40;21.60;;;;;;6178652;23;20036;-79
2022/09/11 10:29:20;;;;;;;0.82;0.40;;;51.30;25.20;;;;;;6180221;23;20043;-79
2022/09/11 10:32:04;;;;;;;1.15;0.40;;;51.30;23.00;;;;;;6179899;23;20009;-78
2022/09/11 10:34:38;;;;;;;0.30;0.20;;;50.90;21.50;;;;;;6179223;23;20001;-79
2022/09/11 10:37:12;;;;;;;0.20;0.20;;;50.10;25.10;;;;;;6179383;23;20016;-78
2022/09/11 10:39:41;;;;;;;0.75;0.30;;;50.00;23.40;;;;;;6178468;23;20025;-79
2022/09/11 10:42:20;;;;;;;1.40;0.25;;;50.40;22.00;;;;;;6179371;23;20004;-79
2022/09/11 10:44:49;;;;;;;0.30;0.20;;;50.00;21.60;;;;;;6176521;23;20364;-79
2022/09/11 10:47:16;;;;;;;0.68;0.20;;;;;;;;;;6179416;23;19997;-79
2022/09/11 10:49:42;;;;;;;0.13;0.10;;;50.50;25.30;;;;;;6179725;23;20328;-79
2022/09/11 10:52:10;;;;;;;0.28;0.15;;;50.80;21.70;;;;;;6179995;23;20005;-79
2022/09/11 10:55:05;;;;;;;0.80;0.20;;;50.60;21.60;;;;;;6179634;23;20005;-78
2022/09/11 10:57:54;;;;;;;0.20;0.20;;;50.50;21.50;;;;;;6153112;23;20013;-78
2022/09/11 11:00:26;;;;;;;0.32;0.20;;;50.80;21.60;;;;;;6179473;23;20012;-78
2022/09/11 11:02:59;;;;;;;0.28;0.10;;;50.60;21.80;;;;;;6177974;23;20341;-78
2022/09/11 11:06:00;;;;;;;0.65;0.20;;;50.30;21.70;;;;;;6179526;23;20032;-79
2022/09/11 11:08:50;;;;;;;0.13;0.10;;;50.00;24.40;;;;;;6087916;23;20002;-79
2022/09/11 11:11:54;;;;;;;0.47;0.10;;;49.50;22.00;;;;;;6088243;23;20017;-79
2022/09/11 11:14:33;;;;;;;0.82;0.20;;;48.60;22.10;;;;;;6087192;23;20489;-78
2022/09/11 11:17:17;;;;;;;0.68;0.08;;;47.80;22.10;;;;;;6087037;23;20026;-77
2022/09/11 11:20:15;;;;;;;0.40;0.10;;;47.00;22.10;;;;;;6088221;23;20023;-78
2022/09/11 11:22:41;;;;;;;1.27;0.20;;;;;;;;;;6081619;23;20010;-78
2022/09/11 11:25:18;;;;;;;;;;;46.70;22.30;;;;;;6088131;23;20014;-78
2022/09/11 11:28:22;;;;;;;0.93;0.20;;;45.00;29.50;;;;;;6088233;23;20928;-80
2022/09/11 11:31:08;;;;;;;1.55;0.55;;;42.50;23.50;;;;;;6087402;23;20081;-80
2022/09/11 11:33:54;;;;;;;0.30;0.00;;;40.20;24.50;;;;;;6087717;23;20011;-79
2022/09/11 11:36:24;;;;;;;;;;;40.10;24.90;;;;;;6087347;23;20469;-80
2022/09/11 11:39:25;;;;;;;0.00;0.00;;;36.80;29.80;;;;;;6088128;23;20012;-80
2022/09/11 11:42:32;;;;;;;2.05;0.10;;;35.90;36.50;;;;;;6088242;23;20047;-79
2022/09/11 11:45:05;;;;;;;2.83;0.68;;;35.10;27.60;;;;;;6156443;23;20096;-80
2022/09/11 11:47:40;;;;;;;0.20;0.10;;;34.70;28.10;;;;;;6179976;23;20326;-80
2022/09/11 11:50:27;;;;;;;0.28;0.08;;;34.40;28.50;;;;;;6179758;23;20001;-80
2022/09/11 11:53:19;;;;;;;0.38;0.03;;;33.80;36.60;;;;;;6179241;23;20448;-79
2022/09/11 11:56:01;;;;;;;0.10;0.10;;;33.60;39.60;;;;;;6168628;23;20344;-79
2022/09/11 11:58:52;;;;;;;0.90;0.10;;;32.40;31.50;;;;;;6181762;23;20027;-80
2022/09/11 12:01:39;;;;;;;0.50;0.15;;;32.00;29.60;;;;;;6181464;23;20092;-80
2022/09/11 12:04:30;;;;;;;0.38;0.10;;;31.90;33.50;;;;;;6181715;23;20013;-79
2022/09/11 12:06:56;;;;;;;0.10;0.10;;;;;;;;;;6181010;23;20011;-79
2022/09/11 12:09:22;;;;;;;0.20;0.20;;;;;;;;;;6181795;23;20076;-80
2022/09/11 12:11:52;;;;;;;2.13;0.10;;;31.30;37.20;;;;;;6181755;23;19997;-79
2022/09/11 12:14:26;;;;;;;1.35;0.28;;;31.20;39.30;;;;;;6180460;23;20236;-79
2022/09/11 12:16:54;;;;;;;1.30;0.30;;;31.10;35.20;;;;;;6181451;23;20051;-79
2022/09/11 12:19:24;;;;;;;0.50;0.20;;;31.40;42.40;;;;;;6181484;23;20013;-80
2022/09/11 12:21:52;;;;;;;1.45;0.90;;;31.40;31.40;;;;;;6181895;23;20087;-79
2022/09/11 12:24:49;;;;;;;0.10;0.10;;;31.40;31.80;;;;;;6154764;23;20614;-79
2022/09/11 12:27:33;;;;;;;0.60;0.30;;;31.50;31.30;;;;;;6181865;23;20005;-79
2022/09/11 12:30:08;;;;;;;0.25;0.20;;;31.70;34.50;;;;;;6181590;23;20582;-80
2022/09/11 12:33:01;;;;;;;0.13;0.13;;;31.80;31.20;;;;;;6180972;23;20009;-80
2022/09/11 12:35:52;;;;;;;0.90;0.20;;;31.90;31.40;;;;;;6176739;23;20005;-81
2022/09/11 12:38:36;;;;;;;0.52;0.10;;;31.80;32.60;;;;;;6181712;23;20001;-80
2022/09/11 12:41:13;;;;;;;0.20;0.20;;;31.80;31.60;;;;;;6181766;23;20002;-80
2022/09/11 12:43:40;;;;;;;;;;;31.80;32.10;;;;;;6180953;23;20040;-80
2022/09/11 12:46:20;;;;;;;;;;;31.40;31.80;;;;;;6181488;23;20341;-79
2022/09/11 12:48:56;;;;;;;0.10;0.10;;;30.60;32.10;;;;;;6181439;23;19983;-79
2022/09/11 12:51:35;;;;;;;0.20;0.20;;;30.60;38.10;;;;;;6181072;23;20005;-79
2022/09/11 12:54:10;;;;;;;0.95;0.93;;;30.40;39.10;;;;;;6181461;23;20013;-79
2022/09/11 12:56:59;;;;;;;0.75;0.50;;;30.40;32.60;;;;;;6154190;23;20440;-79
2022/09/11 12:59:37;;;;;;;0.85;0.20;;;30.40;32.80;;;;;;6181008;23;20015;-80
2022/09/11 13:02:15;;;;;;;0.70;0.20;;;30.30;32.90;;;;;;6181084;23;20008;-80
2022/09/11 13:04:42;;;;;;;0.15;0.13;;;29.90;33.10;;;;;;6180839;23;20043;-80
2022/09/11 13:07:41;;;;;;;0.52;0.30;;;29.70;38.30;;;;;;6180744;23;20032;-79
2022/09/11 13:10:22;;;;;;;0.57;0.20;;;29.20;34.00;;;;;;6181613;23;20093;-79
2022/09/11 13:12:49;;;;;;;0.75;0.20;;;;;;;;;;6179525;23;20065;-79
2022/09/11 13:15:37;;;;;;;0.25;0.25;;;28.90;34.30;;;;;;6180517;23;20001;-79
2022/09/11 13:18:41;;;;;;;0.10;0.10;;;28.80;46.50;;;;;;6181157;23;20013;-80
2022/09/11 13:21:09;;;;;;;0.28;0.20;;;28.90;46.60;;;;;;6089302;23;20386;-79
2022/09/11 13:23:36;;;;;;;1.48;0.30;;;;;;;;;;6089144;23;20018;-80
2022/09/11 13:26:05;;;;;;;0.10;0.10;;;28.90;46.50;;;;;;6089421;23;20058;-80
2022/09/11 13:28:41;;;;;;;1.38;0.30;;;28.80;34.50;;;;;;6089078;23;20093;-80
2022/09/11 13:31:18;;;;;;;0.47;0.22;;;28.40;46.50;;;;;;6089627;23;20002;-80
2022/09/11 13:33:48;;;;;;;0.22;0.15;;;28.40;35.00;;;;;;6089147;23;20018;-80
2022/09/11 13:36:15;;;;;;;0.63;0.22;;;28.50;35.00;;;;;;6089004;23;20006;-79
2022/09/11 13:38:42;;;;;;;1.25;0.25;;;28.40;34.90;;;;;;6088931;23;20013;-80
2022/09/11 13:41:18;;;;;;;0.45;0.30;;;28.40;35.00;;;;;;6089627;23;20006;-80
2022/09/11 13:43:55;;;;;;;0.20;0.20;;;28.20;34.90;;;;;;6088627;23;20471;-80
2022/09/11 13:46:26;;;;;;;0.20;0.20;;;28.20;42.70;;;;;;6088745;23;20278;-79
2022/09/11 13:48:56;;;;;;;0.85;0.30;;;28.10;35.60;;;;;;6089457;23;20069;-79